createdAt,value
2018-06-25T00:00:35.505Z,97.37
2018-06-25T00:01:35.505Z,97.28
2018-06-25T00:02:35.505Z,97.47
2018-06-25T00:03:35.506Z,97.28
2018-06-25T00:04:35.504Z,97.28
2018-06-25T00:05:35.509Z,97.28
2018-06-25T00:06:35.505Z,97.37
2018-06-25T00:07:35.510Z,97.37
2018-06-25T00:08:35.505Z,97.28
2018-06-25T00:09:35.506Z,97.18
2018-06-25T00:10:35.507Z,97.28
2018-06-25T00:11:35.512Z,97.47
2018-06-25T00:12:35.507Z,97.47
2018-06-25T00:13:35.512Z,96.70
2018-06-25T00:14:35.511Z,97.28
2018-06-25T00:15:35.515Z,97.47
2018-06-25T00:16:35.510Z,97.28
2018-06-25T00:17:35.511Z,97.37
2018-06-25T00:18:35.510Z,97.66
2018-06-25T00:19:35.512Z,97.28
2018-06-25T00:20:35.509Z,97.28
2018-06-25T00:21:35.506Z,96.99
2018-06-25T00:22:35.509Z,96.99
2018-06-25T00:23:35.505Z,96.99
2018-06-25T00:24:35.518Z,96.99
2018-06-25T00:25:35.519Z,96.42
2018-06-25T00:26:35.512Z,96.89
2018-06-25T00:27:35.510Z,96.99
2018-06-25T00:28:35.511Z,96.99
2018-06-25T00:29:35.502Z,97.28
2018-06-25T00:30:35.510Z,97.56
2018-06-25T00:31:35.510Z,97.28
2018-06-25T00:32:35.514Z,97.37
2018-06-25T00:33:35.511Z,97.47
2018-06-25T00:34:35.510Z,97.18
2018-06-25T00:35:35.515Z,97.18
2018-06-25T00:36:35.515Z,97.28
2018-06-25T00:37:35.512Z,96.99
2018-06-25T00:38:35.517Z,97.28
2018-06-25T00:39:35.516Z,97.28
2018-06-25T00:40:35.504Z,97.37
2018-06-25T00:41:35.510Z,96.99
2018-06-25T00:42:35.515Z,97.28
2018-06-25T00:43:35.513Z,97.18
2018-06-25T00:44:35.512Z,97.18
2018-06-25T00:45:35.511Z,97.47
2018-06-25T00:46:35.512Z,97.47
2018-06-25T00:47:35.513Z,97.47
2018-06-25T00:48:35.513Z,97.66
2018-06-25T00:49:35.514Z,97.85
2018-06-25T00:50:35.514Z,98.04
2018-06-25T00:51:35.518Z,97.75
2018-06-25T00:52:35.513Z,97.56
2018-06-25T00:53:35.513Z,97.85
2018-06-25T00:54:35.513Z,97.47
2018-06-25T00:55:35.514Z,97.66
2018-06-25T00:56:35.516Z,97.56
2018-06-25T00:57:35.515Z,97.94
2018-06-25T00:58:35.514Z,98.23
2018-06-25T00:59:35.515Z,98.42
2018-06-25T01:00:35.516Z,98.04
2018-06-25T01:01:35.515Z,98.42
2018-06-25T01:02:35.515Z,98.80
2018-06-25T01:03:35.514Z,98.71
2018-06-25T01:04:35.517Z,98.71
2018-06-25T01:05:35.516Z,98.52
2018-06-25T01:06:35.516Z,98.99
2018-06-25T01:07:35.515Z,98.90
2018-06-25T01:08:35.515Z,99.09
2018-06-25T01:09:35.523Z,99.09
2018-06-25T01:10:35.517Z,99.19
2018-06-25T01:11:35.516Z,99.19
2018-06-25T01:12:35.517Z,98.99
2018-06-25T01:13:35.515Z,98.61
2018-06-25T01:14:35.522Z,99.09
2018-06-25T01:15:35.510Z,98.90
2018-06-25T01:16:35.516Z,98.52
2018-06-25T01:17:35.515Z,98.52
2018-06-25T01:18:35.515Z,99.09
2018-06-25T01:19:35.519Z,99.19
2018-06-25T01:20:35.516Z,99.19
2018-06-25T01:21:35.516Z,98.71
2018-06-25T01:22:35.518Z,98.99
2018-06-25T01:23:35.518Z,98.90
2018-06-25T01:24:35.519Z,98.90
2018-06-25T01:25:35.517Z,99.09
2018-06-25T01:26:35.516Z,99.09
2018-06-25T01:27:35.517Z,99.19
2018-06-25T01:28:35.517Z,99.09
2018-06-25T01:29:35.519Z,99.09
2018-06-25T01:30:35.518Z,98.71
2018-06-25T01:31:35.520Z,98.71
2018-06-25T01:32:35.525Z,99.76
2018-06-25T01:33:35.516Z,98.99
2018-06-25T01:34:35.519Z,99.09
2018-06-25T01:35:35.521Z,99.28
2018-06-25T01:36:35.535Z,99.19
2018-06-25T01:37:35.511Z,99.19
2018-06-25T01:38:35.515Z,98.52
2018-06-25T01:39:35.523Z,99.09
2018-06-25T01:40:35.518Z,99.09
2018-06-25T01:41:35.525Z,99.19
2018-06-25T01:42:35.518Z,98.80
2018-06-25T01:43:35.516Z,99.66
2018-06-25T01:44:35.520Z,99.57
2018-06-25T01:45:35.521Z,99.38
2018-06-25T01:46:35.520Z,99.28
2018-06-25T01:47:35.520Z,99.57
2018-06-25T01:48:35.519Z,99.57
2018-06-25T01:49:35.521Z,99.19
2018-06-25T01:50:35.519Z,99.19
2018-06-25T01:51:35.519Z,99.28
2018-06-25T01:52:35.518Z,99.09
2018-06-25T01:53:35.520Z,99.66
2018-06-25T01:54:35.521Z,99.28
2018-06-25T01:55:35.522Z,99.57
2018-06-25T01:56:35.517Z,99.48
2018-06-25T01:57:35.523Z,99.76
2018-06-25T01:58:35.520Z,99.48
2018-06-25T01:59:35.522Z,99.57
2018-06-25T02:00:35.519Z,99.28
2018-06-25T02:01:35.522Z,99.38
2018-06-25T02:02:35.521Z,99.28
2018-06-25T02:03:35.521Z,99.28
2018-06-25T02:04:35.522Z,99.66
2018-06-25T02:05:35.520Z,99.38
2018-06-25T02:06:35.523Z,99.38
2018-06-25T02:07:35.521Z,99.48
2018-06-25T02:08:35.557Z,99.57
2018-06-25T02:09:35.522Z,99.28
2018-06-25T02:10:35.523Z,99.38
2018-06-25T02:11:35.519Z,99.66
2018-06-25T02:12:35.521Z,99.66
2018-06-25T02:13:35.520Z,99.66
2018-06-25T02:14:35.522Z,99.95
2018-06-25T02:15:35.519Z,99.48
2018-06-25T02:16:35.520Z,99.38
2018-06-25T02:17:35.524Z,99.85
2018-06-25T02:18:35.522Z,99.76
2018-06-25T02:19:35.526Z,99.66
2018-06-25T02:20:35.521Z,99.66
2018-06-25T02:21:35.524Z,99.66
2018-06-25T02:22:35.524Z,99.57
2018-06-25T02:23:35.525Z,99.95
2018-06-25T02:24:35.526Z,99.99
2018-06-25T02:25:35.522Z,99.99
2018-06-25T02:26:35.524Z,99.99
2018-06-25T02:27:35.525Z,99.99
2018-06-25T02:28:35.523Z,99.99
2018-06-25T02:29:35.522Z,99.99
2018-06-25T02:30:35.522Z,99.99
2018-06-25T02:31:35.524Z,99.76
2018-06-25T02:32:35.523Z,99.76
2018-06-25T02:33:35.523Z,99.99
2018-06-25T02:34:35.517Z,99.99
2018-06-25T02:35:35.523Z,99.95
2018-06-25T02:36:35.526Z,99.85
2018-06-25T02:37:35.524Z,99.99
2018-06-25T02:38:35.539Z,99.95
2018-06-25T02:39:35.524Z,99.99
2018-06-25T02:40:35.527Z,99.99
2018-06-25T02:41:35.530Z,99.76
2018-06-25T02:42:35.529Z,99.57
2018-06-25T02:43:35.521Z,99.95
2018-06-25T02:44:35.520Z,99.66
2018-06-25T02:45:35.528Z,99.99
2018-06-25T02:46:35.526Z,99.99
2018-06-25T02:47:35.522Z,99.99
2018-06-25T02:48:35.526Z,99.85
2018-06-25T02:49:35.524Z,99.99
2018-06-25T02:50:35.529Z,99.99
2018-06-25T02:51:35.535Z,99.99
2018-06-25T02:52:35.526Z,99.85
2018-06-25T02:53:35.533Z,99.99
2018-06-25T02:54:35.528Z,99.99
2018-06-25T02:55:35.528Z,99.99
2018-06-25T02:56:35.528Z,99.99
2018-06-25T02:57:35.529Z,99.99
2018-06-25T02:58:35.530Z,99.99
2018-06-25T02:59:35.529Z,99.99
2018-06-25T03:00:35.529Z,99.99
2018-06-25T03:01:35.523Z,99.99
2018-06-25T03:02:35.529Z,99.99
2018-06-25T03:03:35.525Z,99.99
2018-06-25T03:04:35.530Z,99.99
2018-06-25T03:05:35.551Z,99.99
2018-06-25T03:06:35.532Z,99.99
2018-06-25T03:07:35.531Z,99.99
2018-06-25T03:08:35.533Z,99.99
2018-06-25T03:09:35.532Z,99.99
2018-06-25T03:10:35.533Z,99.99
2018-06-25T03:11:35.535Z,99.99
2018-06-25T03:12:35.532Z,99.99
2018-06-25T03:13:35.536Z,99.99
2018-06-25T03:14:35.531Z,99.99
2018-06-25T03:15:35.536Z,99.99
2018-06-25T03:16:35.537Z,99.99
2018-06-25T03:17:35.533Z,99.99
2018-06-25T03:18:35.536Z,99.99
2018-06-25T03:19:35.536Z,99.99
2018-06-25T03:20:35.535Z,99.99
2018-06-25T03:21:35.536Z,99.99
2018-06-25T03:22:35.536Z,99.99
2018-06-25T03:23:35.536Z,99.99
2018-06-25T03:24:35.535Z,99.99
2018-06-25T03:25:35.536Z,99.99
2018-06-25T03:26:35.536Z,99.99
2018-06-25T03:27:35.538Z,99.99
2018-06-25T03:28:35.536Z,99.99
2018-06-25T03:29:35.536Z,99.99
2018-06-25T03:30:35.538Z,99.99
2018-06-25T03:31:35.540Z,99.99
2018-06-25T03:32:35.536Z,99.99
2018-06-25T03:33:35.537Z,99.99
2018-06-25T03:34:35.539Z,99.99
2018-06-25T03:35:35.535Z,99.99
2018-06-25T03:36:35.536Z,99.99
2018-06-25T03:37:35.538Z,99.99
2018-06-25T03:38:35.537Z,99.99
2018-06-25T03:39:35.536Z,99.99
2018-06-25T03:40:35.534Z,99.99
2018-06-25T03:41:35.536Z,99.99
2018-06-25T03:42:35.536Z,99.99
2018-06-25T03:43:35.537Z,99.99
2018-06-25T03:44:35.531Z,99.99
2018-06-25T03:45:35.536Z,99.99
2018-06-25T03:46:35.534Z,99.99
2018-06-25T03:47:35.532Z,99.99
2018-06-25T03:48:35.536Z,99.99
2018-06-25T03:49:35.538Z,99.99
2018-06-25T03:50:35.538Z,99.99
2018-06-25T03:51:35.537Z,99.99
2018-06-25T03:52:35.537Z,99.99
2018-06-25T03:53:35.530Z,99.99
2018-06-25T03:54:35.536Z,99.99
2018-06-25T03:55:35.537Z,99.99
2018-06-25T03:56:35.537Z,99.99
2018-06-25T03:57:35.531Z,99.99
2018-06-25T03:58:35.538Z,99.99
2018-06-25T03:59:35.536Z,99.99
2018-06-25T04:00:35.539Z,99.99
2018-06-25T04:01:35.536Z,99.99
2018-06-25T04:02:35.539Z,99.99
2018-06-25T04:03:35.540Z,99.99
2018-06-25T04:04:35.540Z,99.99
2018-06-25T04:05:35.536Z,99.99
2018-06-25T04:06:35.536Z,99.99
2018-06-25T04:07:35.535Z,99.99
2018-06-25T04:08:35.537Z,99.99
2018-06-25T04:09:35.537Z,99.99
2018-06-25T04:10:35.537Z,99.99
2018-06-25T04:11:35.531Z,99.99
2018-06-25T04:12:35.537Z,99.99
2018-06-25T04:13:35.537Z,99.99
2018-06-25T04:14:35.531Z,99.99
2018-06-25T04:15:35.538Z,99.99
2018-06-25T04:16:35.537Z,99.99
2018-06-25T04:17:35.536Z,99.99
2018-06-25T04:18:35.536Z,99.99
2018-06-25T04:19:35.533Z,99.99
2018-06-25T04:20:35.594Z,99.99
2018-06-25T04:21:35.539Z,99.99
2018-06-25T04:22:35.536Z,99.99
2018-06-25T04:23:35.539Z,99.99
2018-06-25T04:24:35.540Z,99.99
2018-06-25T04:25:35.541Z,99.99
2018-06-25T04:26:35.544Z,99.90
2018-06-25T04:27:35.541Z,99.99
2018-06-25T04:28:35.540Z,99.99
2018-06-25T04:29:35.542Z,99.90
2018-06-25T04:30:35.552Z,99.81
2018-06-25T04:31:35.544Z,99.90
2018-06-25T04:32:35.544Z,99.62
2018-06-25T04:33:35.544Z,99.71
2018-06-25T04:34:35.546Z,99.52
2018-06-25T04:35:35.545Z,99.62
2018-06-25T04:36:35.539Z,99.71
2018-06-25T04:37:35.549Z,99.24
2018-06-25T04:38:35.548Z,99.43
2018-06-25T04:39:35.545Z,99.71
2018-06-25T04:40:35.548Z,99.71
2018-06-25T04:41:35.548Z,99.62
2018-06-25T04:42:35.550Z,99.52
2018-06-25T04:43:35.548Z,99.71
2018-06-25T04:44:35.543Z,99.43
2018-06-25T04:45:35.550Z,99.43
2018-06-25T04:46:35.550Z,99.81
2018-06-25T04:47:35.550Z,99.71
2018-06-25T04:48:35.555Z,99.14
2018-06-25T04:49:35.552Z,99.71
2018-06-25T04:50:35.649Z,98.75
2018-06-25T04:51:35.554Z,99.14
2018-06-25T04:52:35.554Z,98.75
2018-06-25T04:53:35.554Z,99.04
2018-06-25T04:54:35.557Z,99.04
2018-06-25T04:55:35.558Z,98.75
2018-06-25T04:56:35.551Z,98.38
2018-06-25T04:57:35.557Z,98.47
2018-06-25T04:58:35.566Z,98.95
2018-06-25T04:59:35.559Z,98.75
2018-06-25T05:00:35.561Z,98.24
2018-06-25T05:01:35.564Z,98.43
2018-06-25T05:02:35.557Z,98.33
2018-06-25T05:03:35.565Z,97.66
2018-06-25T05:04:35.565Z,97.75
2018-06-25T05:05:35.560Z,97.85
2018-06-25T05:06:35.568Z,98.14
2018-06-25T05:07:35.566Z,97.66
2018-06-25T05:08:35.572Z,97.37
2018-06-25T05:09:35.570Z,97.28
2018-06-25T05:10:35.572Z,97.18
2018-06-25T05:11:35.567Z,97.47
2018-06-25T05:12:35.569Z,97.23
2018-06-25T05:13:35.574Z,97.23
2018-06-25T05:14:35.576Z,97.47
2018-06-25T05:15:35.578Z,97.37
2018-06-25T05:16:35.577Z,97.18
2018-06-25T05:17:35.582Z,97.47
2018-06-25T05:18:35.580Z,97.28
2018-06-25T05:19:35.583Z,97.18
2018-06-25T05:20:35.581Z,97.37
2018-06-25T05:21:35.586Z,97.18
2018-06-25T05:22:35.584Z,96.80
2018-06-25T05:23:35.611Z,96.99
2018-06-25T05:24:35.584Z,96.80
2018-06-25T05:25:35.586Z,96.51
2018-06-25T05:26:35.589Z,96.51
2018-06-25T05:27:35.595Z,96.51
2018-06-25T05:28:35.589Z,96.70
2018-06-25T05:29:35.589Z,96.51
2018-06-25T05:30:35.591Z,96.51
2018-06-25T05:31:35.592Z,96.51
2018-06-25T05:32:35.600Z,96.42
2018-06-25T05:33:35.595Z,95.94
2018-06-25T05:34:35.596Z,95.79
2018-06-25T05:35:35.598Z,96.66
2018-06-25T05:36:35.598Z,96.89
2018-06-25T05:37:35.601Z,96.94
2018-06-25T05:38:35.601Z,96.99
2018-06-25T05:39:35.621Z,97.18
2018-06-25T05:40:35.604Z,96.84
2018-06-25T05:41:35.605Z,97.13
2018-06-25T05:42:35.605Z,96.80
2018-06-25T05:43:35.608Z,96.42
2018-06-25T05:44:35.610Z,96.61
2018-06-25T05:45:35.626Z,96.80
2018-06-25T05:46:35.611Z,96.70
2018-06-25T05:47:35.613Z,96.70
2018-06-25T05:48:35.606Z,96.70
2018-06-25T05:49:35.614Z,96.32
2018-06-25T05:50:35.618Z,96.61
2018-06-25T05:51:35.616Z,96.22
2018-06-25T05:52:35.615Z,95.75
2018-06-25T05:53:35.619Z,96.61
2018-06-25T05:54:35.620Z,96.32
2018-06-25T05:55:35.618Z,95.84
2018-06-25T05:56:35.621Z,96.89
2018-06-25T05:57:35.624Z,96.32
2018-06-25T05:58:35.634Z,96.61
2018-06-25T05:59:35.627Z,96.80
2018-06-25T06:00:35.627Z,96.22
2018-06-25T06:01:35.629Z,96.22
2018-06-25T06:02:35.624Z,96.51
2018-06-25T06:03:35.633Z,97.04
2018-06-25T06:04:35.633Z,95.89
2018-06-25T06:05:35.640Z,95.61
2018-06-25T06:06:35.636Z,96.27
2018-06-25T06:07:35.638Z,95.79
2018-06-25T06:08:35.638Z,95.98
2018-06-25T06:09:35.640Z,95.51
2018-06-25T06:10:35.643Z,95.12
2018-06-25T06:11:35.650Z,94.45
2018-06-25T06:12:35.644Z,94.21
2018-06-25T06:13:35.646Z,93.83
2018-06-25T06:14:35.651Z,94.12
2018-06-25T06:15:35.651Z,93.26
2018-06-25T06:16:35.651Z,93.35
2018-06-25T06:17:35.655Z,93.16
2018-06-25T06:18:35.656Z,93.02
2018-06-25T06:19:35.652Z,92.15
2018-06-25T06:20:35.654Z,92.44
2018-06-25T06:21:35.662Z,92.35
2018-06-25T06:22:35.664Z,92.35
2018-06-25T06:23:35.666Z,92.15
2018-06-25T06:24:35.669Z,92.06
2018-06-25T06:25:35.666Z,91.58
2018-06-25T06:26:35.672Z,91.49
2018-06-25T06:27:35.679Z,91.96
2018-06-25T06:28:35.678Z,92.15
2018-06-25T06:29:35.679Z,92.11
2018-06-25T06:30:35.681Z,92.11
2018-06-25T06:31:35.680Z,91.58
2018-06-25T06:32:35.686Z,91.96
2018-06-25T06:33:35.692Z,92.06
2018-06-25T06:34:35.692Z,91.39
2018-06-25T06:35:35.695Z,91.77
2018-06-25T06:36:35.698Z,91.67
2018-06-25T06:37:35.700Z,91.10
2018-06-25T06:38:35.700Z,91.58
2018-06-25T06:39:35.705Z,90.81
2018-06-25T06:40:35.707Z,91.00
2018-06-25T06:41:35.709Z,90.53
2018-06-25T06:42:35.714Z,90.91
2018-06-25T06:43:35.714Z,90.62
2018-06-25T06:44:35.713Z,90.43
2018-06-25T06:45:35.714Z,90.38
2018-06-25T06:46:35.717Z,90.57
2018-06-25T06:47:35.725Z,89.71
2018-06-25T06:48:35.726Z,90.62
2018-06-25T06:49:35.730Z,90.53
2018-06-25T06:50:35.730Z,90.62
2018-06-25T06:51:35.736Z,91.10
2018-06-25T06:52:35.741Z,91.49
2018-06-25T06:53:35.741Z,91.67
2018-06-25T06:54:35.747Z,92.11
2018-06-25T06:55:35.747Z,92.01
2018-06-25T06:56:35.745Z,91.82
2018-06-25T06:57:35.783Z,92.21
2018-06-25T06:58:35.749Z,91.63
2018-06-25T06:59:35.752Z,92.58
2018-06-25T07:00:35.758Z,92.40
2018-06-25T07:01:35.759Z,91.58
2018-06-25T07:02:35.763Z,91.19
2018-06-25T07:03:35.767Z,91.19
2018-06-25T07:04:35.773Z,90.23
2018-06-25T07:05:35.767Z,89.86
2018-06-25T07:06:35.771Z,90.14
2018-06-25T07:07:35.773Z,90.62
2018-06-25T07:08:35.776Z,90.33
2018-06-25T07:09:35.779Z,90.43
2018-06-25T07:10:35.780Z,89.47
2018-06-25T07:11:35.783Z,89.76
2018-06-25T07:12:35.786Z,89.57
2018-06-25T07:13:35.787Z,89.57
2018-06-25T07:14:35.792Z,89.66
2018-06-25T07:15:35.792Z,89.37
2018-06-25T07:16:35.796Z,89.47
2018-06-25T07:17:35.803Z,89.14
2018-06-25T07:18:35.802Z,89.72
2018-06-25T07:19:35.804Z,89.43
2018-06-25T07:20:35.808Z,90.19
2018-06-25T07:21:35.807Z,90.58
2018-06-25T07:22:35.808Z,89.72
2018-06-25T07:23:35.806Z,89.81
2018-06-25T07:24:35.810Z,90.09
2018-06-25T07:25:35.816Z,90.48
2018-06-25T07:26:35.822Z,90.09
2018-06-25T07:27:35.815Z,90.29
2018-06-25T07:28:35.822Z,89.62
2018-06-25T07:29:35.825Z,89.47
2018-06-25T07:30:35.827Z,89.52
2018-06-25T07:31:35.830Z,88.85
2018-06-25T07:32:35.830Z,89.18
2018-06-25T07:33:35.832Z,89.09
2018-06-25T07:34:35.840Z,89.37
2018-06-25T07:35:35.838Z,89.28
2018-06-25T07:36:35.840Z,88.46
2018-06-25T07:37:35.846Z,87.98
2018-06-25T07:38:35.851Z,87.98
2018-06-25T07:39:35.841Z,87.50
2018-06-25T07:40:35.848Z,87.50
2018-06-25T07:41:35.876Z,87.65
2018-06-25T07:42:35.854Z,87.37
2018-06-25T07:43:35.858Z,87.08
2018-06-25T07:44:35.860Z,87.55
2018-06-25T07:45:35.862Z,87.94
2018-06-25T07:46:35.864Z,87.88
2018-06-25T07:47:35.870Z,87.70
2018-06-25T07:48:35.869Z,87.60
2018-06-25T07:49:35.871Z,87.94
2018-06-25T07:50:35.877Z,87.98
2018-06-25T07:51:35.872Z,88.17
2018-06-25T07:52:35.880Z,87.98
2018-06-25T07:53:35.932Z,88.03
2018-06-25T07:54:35.887Z,87.74
2018-06-25T07:55:35.889Z,87.94
2018-06-25T07:56:35.892Z,87.74
2018-06-25T07:57:35.893Z,88.03
2018-06-25T07:58:35.892Z,87.65
2018-06-25T07:59:35.898Z,87.94
2018-06-25T08:00:35.899Z,87.84
2018-06-25T08:01:35.906Z,87.27
2018-06-25T08:02:35.906Z,87.46
2018-06-25T08:03:35.953Z,87.46
2018-06-25T08:04:35.912Z,88.13
2018-06-25T08:05:35.918Z,87.99
2018-06-25T08:06:35.917Z,88.85
2018-06-25T08:07:35.926Z,88.66
2018-06-25T08:08:35.917Z,88.56
2018-06-25T08:09:35.928Z,88.80
2018-06-25T08:10:35.926Z,88.80
2018-06-25T08:11:35.928Z,88.80
2018-06-25T08:12:35.928Z,88.23
2018-06-25T08:13:35.931Z,88.03
2018-06-25T08:14:35.935Z,87.46
2018-06-25T08:15:35.939Z,87.46
2018-06-25T08:16:35.948Z,86.93
2018-06-25T08:17:35.943Z,87.12
2018-06-25T08:18:35.946Z,86.83
2018-06-25T08:19:35.947Z,85.58
2018-06-25T08:20:35.949Z,84.72
2018-06-25T08:21:35.954Z,85.01
2018-06-25T08:22:35.953Z,85.39
2018-06-25T08:23:35.957Z,85.54
2018-06-25T08:24:35.961Z,85.49
2018-06-25T08:25:35.962Z,85.78
2018-06-25T08:26:35.959Z,86.07
2018-06-25T08:27:35.967Z,85.49
2018-06-25T08:28:35.971Z,85.49
2018-06-25T08:29:35.971Z,84.82
2018-06-25T08:30:35.980Z,84.91
2018-06-25T08:31:35.974Z,84.48
2018-06-25T08:32:35.980Z,83.71
2018-06-25T08:33:35.985Z,83.61
2018-06-25T08:34:35.987Z,83.91
2018-06-25T08:35:35.993Z,83.71
2018-06-25T08:36:35.993Z,83.91
2018-06-25T08:37:35.996Z,83.61
2018-06-25T08:38:36.000Z,83.52
2018-06-25T08:39:36.003Z,83.27
2018-06-25T08:40:36.005Z,82.51
2018-06-25T08:41:36.011Z,82.21
2018-06-25T08:42:36.015Z,81.93
2018-06-25T08:43:36.018Z,82.03
2018-06-25T08:44:36.021Z,81.35
2018-06-25T08:45:36.024Z,81.93
2018-06-25T08:46:36.026Z,81.26
2018-06-25T08:47:36.031Z,81.35
2018-06-25T08:48:36.036Z,80.53
2018-06-25T08:49:36.042Z,80.43
2018-06-25T08:50:36.041Z,79.57
2018-06-25T08:51:36.104Z,79.28
2018-06-25T08:52:36.049Z,78.99
2018-06-25T08:53:36.055Z,78.80
2018-06-25T08:54:36.058Z,78.65
2018-06-25T08:55:36.062Z,78.27
2018-06-25T08:56:36.067Z,77.73
2018-06-25T08:57:36.072Z,76.86
2018-06-25T08:58:36.072Z,75.23
2018-06-25T08:59:36.075Z,74.85
2018-06-25T09:00:36.086Z,74.81
2018-06-25T09:01:36.088Z,73.88
2018-06-25T09:02:36.093Z,73.88
2018-06-25T09:03:36.101Z,73.50
2018-06-25T09:04:36.104Z,73.79
2018-06-25T09:05:36.108Z,73.79
2018-06-25T09:06:36.113Z,73.98
2018-06-25T09:07:36.120Z,72.83
2018-06-25T09:08:36.123Z,72.48
2018-06-25T09:09:36.189Z,72.86
2018-06-25T09:10:36.133Z,72.44
2018-06-25T09:11:36.136Z,72.92
2018-06-25T09:12:36.143Z,73.66
2018-06-25T09:13:36.149Z,75.00
2018-06-25T09:14:36.155Z,74.77
2018-06-25T09:15:36.227Z,75.92
2018-06-25T09:16:36.163Z,75.87
2018-06-25T09:17:36.170Z,75.38
2018-06-25T09:18:36.175Z,75.20
2018-06-25T09:19:36.174Z,74.71
2018-06-25T09:20:36.187Z,74.90
2018-06-25T09:21:36.189Z,73.60
2018-06-25T09:22:36.197Z,73.50
2018-06-25T09:23:36.203Z,72.54
2018-06-25T09:24:36.206Z,72.58
2018-06-25T09:25:36.213Z,71.61
2018-06-25T09:26:36.217Z,72.48
2018-06-25T09:27:36.250Z,72.19
2018-06-25T09:28:36.226Z,72.86
2018-06-25T09:29:36.234Z,72.96
2018-06-25T09:30:36.233Z,73.15
2018-06-25T09:31:36.242Z,73.50
2018-06-25T09:32:36.245Z,73.50
2018-06-25T09:33:36.254Z,74.27
2018-06-25T09:34:36.269Z,74.75
2018-06-25T09:35:36.266Z,74.85
2018-06-25T09:36:36.272Z,73.60
2018-06-25T09:37:36.279Z,73.11
2018-06-25T09:38:36.285Z,72.73
2018-06-25T09:39:36.281Z,72.77
2018-06-25T09:40:36.287Z,72.00
2018-06-25T09:41:36.430Z,71.61
2018-06-25T09:42:36.301Z,71.23
2018-06-25T09:43:36.312Z,71.94
2018-06-25T09:44:36.313Z,71.33
2018-06-25T09:45:36.316Z,71.17
2018-06-25T09:46:36.324Z,70.40
2018-06-25T09:47:36.333Z,68.67
2018-06-25T09:48:36.331Z,67.68
2018-06-25T09:49:36.340Z,68.44
2018-06-25T09:50:36.346Z,69.79
2018-06-25T09:51:36.351Z,69.60
2018-06-25T09:52:36.357Z,69.85
2018-06-25T09:53:36.359Z,70.33
2018-06-25T09:54:36.369Z,70.52
2018-06-25T09:55:36.367Z,70.81
2018-06-25T09:56:36.378Z,70.81
2018-06-25T09:57:36.383Z,70.62
2018-06-25T09:58:36.390Z,71.67
2018-06-25T09:59:36.396Z,71.48
2018-06-25T10:00:36.402Z,71.58
2018-06-25T10:01:36.406Z,71.45
2018-06-25T10:02:36.416Z,72.41
2018-06-25T10:03:36.444Z,72.69
2018-06-25T10:04:36.419Z,73.02
2018-06-25T10:05:36.426Z,73.31
2018-06-25T10:06:36.432Z,73.60
2018-06-25T10:07:36.429Z,73.85
2018-06-25T10:08:36.443Z,73.41
2018-06-25T10:09:36.447Z,73.21
2018-06-25T10:10:36.471Z,71.96
2018-06-25T10:11:36.457Z,71.87
2018-06-25T10:12:36.458Z,72.92
2018-06-25T10:13:36.464Z,72.34
2018-06-25T10:14:36.475Z,72.73
2018-06-25T10:15:36.474Z,72.77
2018-06-25T10:16:36.478Z,71.91
2018-06-25T10:17:36.485Z,71.75
2018-06-25T10:18:36.488Z,71.17
2018-06-25T10:19:36.496Z,70.68
2018-06-25T10:20:36.500Z,70.37
2018-06-25T10:21:36.504Z,70.27
2018-06-25T10:22:36.503Z,69.44
2018-06-25T10:23:36.514Z,68.57
2018-06-25T10:24:36.520Z,69.34
2018-06-25T10:25:36.523Z,68.25
2018-06-25T10:26:36.529Z,69.73
2018-06-25T10:27:36.536Z,67.99
2018-06-25T10:28:36.541Z,67.61
2018-06-25T10:29:36.544Z,67.61
2018-06-25T10:30:36.551Z,67.42
2018-06-25T10:31:36.556Z,67.32
2018-06-25T10:32:36.562Z,67.71
2018-06-25T10:33:36.569Z,66.78
2018-06-25T10:34:36.567Z,66.68
2018-06-25T10:35:36.577Z,66.39
2018-06-25T10:36:36.585Z,66.01
2018-06-25T10:37:36.588Z,65.43
2018-06-25T10:38:36.597Z,65.14
2018-06-25T10:39:36.601Z,65.72
2018-06-25T10:40:36.608Z,66.39
2018-06-25T10:41:36.612Z,65.20
2018-06-25T10:42:36.737Z,65.50
2018-06-25T10:43:36.628Z,66.46
2018-06-25T10:44:36.630Z,66.84
2018-06-25T10:45:36.638Z,66.46
2018-06-25T10:46:36.643Z,66.74
2018-06-25T10:47:36.648Z,65.43
2018-06-25T10:48:36.648Z,64.66
2018-06-25T10:49:36.661Z,65.20
2018-06-25T10:50:36.666Z,65.40
2018-06-25T10:51:36.675Z,65.50
2018-06-25T10:52:36.678Z,65.40
2018-06-25T10:53:36.683Z,66.55
2018-06-25T10:54:36.690Z,65.78
2018-06-25T10:55:36.698Z,65.97
2018-06-25T10:56:36.700Z,65.97
2018-06-25T10:57:36.705Z,66.20
2018-06-25T10:58:36.712Z,65.59
2018-06-25T10:59:36.770Z,65.72
2018-06-25T11:00:36.723Z,65.63
2018-06-25T11:01:36.730Z,65.53
2018-06-25T11:02:36.738Z,65.33
2018-06-25T11:03:36.741Z,64.50
2018-06-25T11:04:36.742Z,63.64
2018-06-25T11:05:36.753Z,61.71
2018-06-25T11:06:36.766Z,61.32
2018-06-25T11:07:36.812Z,61.90
2018-06-25T11:08:36.770Z,60.75
2018-06-25T11:09:36.779Z,60.84
2018-06-25T11:10:36.784Z,60.46
2018-06-25T11:11:36.791Z,61.80
2018-06-25T11:12:36.797Z,60.84
2018-06-25T11:13:36.920Z,60.65
2018-06-25T11:14:36.806Z,60.65
2018-06-25T11:15:36.811Z,61.13
2018-06-25T11:16:36.820Z,61.22
2018-06-25T11:17:36.826Z,60.75
2018-06-25T11:18:36.837Z,60.55
2018-06-25T11:19:36.839Z,61.16
2018-06-25T11:20:36.846Z,61.45
2018-06-25T11:21:36.851Z,60.68
2018-06-25T11:22:36.854Z,59.72
2018-06-25T11:23:36.863Z,58.65
2018-06-25T11:24:36.868Z,60.00
2018-06-25T11:25:36.877Z,60.00
2018-06-25T11:26:36.889Z,59.91
2018-06-25T11:27:36.924Z,60.07
2018-06-25T11:28:36.895Z,60.27
2018-06-25T11:29:36.895Z,60.55
2018-06-25T11:30:36.907Z,61.22
2018-06-25T11:31:36.912Z,61.71
2018-06-25T11:32:36.918Z,60.75
2018-06-25T11:33:36.923Z,60.07
2018-06-25T11:34:36.989Z,60.27
2018-06-25T11:35:36.936Z,61.16
2018-06-25T11:36:36.943Z,60.30
2018-06-25T11:37:36.948Z,59.43
2018-06-25T11:38:36.957Z,59.04
2018-06-25T11:39:36.962Z,59.23
2018-06-25T11:40:36.969Z,59.17
2018-06-25T11:41:36.973Z,58.49
2018-06-25T11:42:36.980Z,58.49
2018-06-25T11:43:36.990Z,58.40
2018-06-25T11:44:36.993Z,58.11
2018-06-25T11:45:37.001Z,58.49
2018-06-25T11:46:37.005Z,58.40
2018-06-25T11:47:37.015Z,58.17
2018-06-25T11:48:37.016Z,58.56
2018-06-25T11:49:37.031Z,58.27
2018-06-25T11:50:37.032Z,58.11
2018-06-25T11:51:37.095Z,57.92
2018-06-25T11:52:37.045Z,57.34
2018-06-25T11:53:37.048Z,56.85
2018-06-25T11:54:37.059Z,56.40
2018-06-25T11:55:37.065Z,56.85
2018-06-25T11:56:37.072Z,57.24
2018-06-25T11:57:37.078Z,56.85
2018-06-25T11:58:37.086Z,57.82
2018-06-25T11:59:37.095Z,58.20
2018-06-25T12:00:37.096Z,57.82
2018-06-25T12:01:37.128Z,58.01
2018-06-25T12:02:37.263Z,58.11
2018-06-25T12:03:37.120Z,56.37
2018-06-25T12:04:37.124Z,56.57
2018-06-25T12:05:37.132Z,57.14
2018-06-25T12:06:37.157Z,56.73
2018-06-25T12:07:37.146Z,56.54
2018-06-25T12:08:37.149Z,56.22
2018-06-25T12:09:37.154Z,55.93
2018-06-25T12:10:37.164Z,56.12
2018-06-25T12:11:37.177Z,56.60
2018-06-25T12:12:37.174Z,56.99
2018-06-25T12:13:37.188Z,57.86
2018-06-25T12:14:37.189Z,58.15
2018-06-25T12:15:37.196Z,58.82
2018-06-25T12:16:37.199Z,59.01
2018-06-25T12:17:37.242Z,58.63
2018-06-25T12:18:37.212Z,58.72
2018-06-25T12:19:37.217Z,58.05
2018-06-25T12:20:37.227Z,58.24
2018-06-25T12:21:37.225Z,57.47
2018-06-25T12:22:37.237Z,58.05
2018-06-25T12:23:37.241Z,57.12
2018-06-25T12:24:37.246Z,57.12
2018-06-25T12:25:37.251Z,56.18
2018-06-25T12:26:37.258Z,56.47
2018-06-25T12:27:37.327Z,56.49
2018-06-25T12:28:37.271Z,54.09
2018-06-25T12:29:37.276Z,53.03
2018-06-25T12:30:37.284Z,53.51
2018-06-25T12:31:37.289Z,53.80
2018-06-25T12:32:37.293Z,53.80
2018-06-25T12:33:37.300Z,54.38
2018-06-25T12:34:37.309Z,56.01
2018-06-25T12:35:37.313Z,55.70
2018-06-25T12:36:37.319Z,55.41
2018-06-25T12:37:37.378Z,56.54
2018-06-25T12:38:37.333Z,57.34
2018-06-25T12:39:37.336Z,56.95
2018-06-25T12:40:37.345Z,56.95
2018-06-25T12:41:37.361Z,56.66
2018-06-25T12:42:37.360Z,56.57
2018-06-25T12:43:37.361Z,56.82
2018-06-25T12:44:37.370Z,56.63
2018-06-25T12:45:37.379Z,56.35
2018-06-25T12:46:37.385Z,57.02
2018-06-25T12:47:37.390Z,57.12
2018-06-25T12:48:37.396Z,56.92
2018-06-25T12:49:37.404Z,57.40
2018-06-25T12:50:37.408Z,57.12
2018-06-25T12:51:37.420Z,56.95
2018-06-25T12:52:37.420Z,56.57